Time;durP1;ratioP1;P1;durP2;ratioP2;P2;SDS_P1;SDS_P2;PMS_P1;PMS_P2;Temp;Humidity;BMP_temperature;BMP_pressure;BME280_temperature;BME280_humidity;BME280_pressure;Samples;Min_cycle;Max_cycle;Signal;HPM_P1;HPM_P2
2022/11/05 00:16:42;;;;;;;;;2.25;2.00;;;;;6.52;72.84;100815.91;6157773;23;45180;-95
2022/11/05 00:17:04;;;;;;;;;10.00;10.00;;;;;7.28;73.31;100967.44;6053721;23;45251;-91
2022/11/05 00:19:32;;;;;;;;;11.00;8.50;;;;;6.14;72.78;100777.38;6018921;23;45252;-92
2022/11/05 00:27:34;;;;;;;;;12.00;10.50;;;;;7.72;73.21;101054.25;6041426;23;45180;-92
2022/11/05 00:29:59;;;;;;;;;9.50;7.00;;;;;5.09;72.46;100620.59;6041731;23;45203;-94
2022/11/05 00:32:26;;;;;;;;;8.75;7.25;;;;;6.14;72.84;100804.47;6019351;23;44623;-95
2022/11/05 00:34:53;;;;;;;;;9.25;8.25;;;;;5.40;73.01;100661.75;6016546;23;45499;-94
2022/11/05 00:37:18;;;;;;;;;7.75;7.75;;;;;5.76;72.79;100729.16;6059355;23;46716;-92
2022/11/05 00:39:44;;;;;;;;;8.25;8.25;;;;;6.44;73.45;100844.78;6011831;23;45266;-91
2022/11/05 00:45:04;;;;;;;;;6.25;6.25;;;;;5.85;72.69;100742.28;6047584;23;45191;-91
2022/11/05 00:50:19;;;;;;;;;9.50;9.50;;;;;7.59;73.26;101051.63;6043866;23;45271;-92
2022/11/05 00:52:54;;;;;;;;;9.75;9.75;;;;;6.57;73.26;100880.72;6064040;23;45247;-92
2022/11/05 00:55:55;;;;;;;;;6.75;5.50;;;;;6.14;72.64;100799.22;6136688;23;45157;-93
2022/11/05 00:58:23;;;;;;;;;12.25;9.00;;;;;6.01;73.37;100786.94;6080144;23;47230;-91
2022/11/05 01:00:55;;;;;;;;;9.50;8.00;;;;;5.52;72.80;100699.34;6101282;23;45207;-92
2022/11/05 01:03:25;;;;;;;;;8.50;7.50;;;;;5.52;72.91;100685.38;6096822;23;45233;-92
2022/11/05 01:05:55;;;;;;;;;8.00;4.75;;;;;7.88;73.45;101103.38;6077389;23;45479;-94
2022/11/05 01:08:23;;;;;;;;;6.00;6.00;;;;;6.14;73.45;100788.72;6057581;23;48168;-94
2022/11/05 01:10:56;;;;;;;;;11.00;8.00;;;;;6.90;72.96;100936.75;6101806;23;45238;-93
2022/11/05 01:13:25;;;;;;;;;7.75;5.50;;;;;7.24;73.16;100991.09;6102113;23;45351;-94
2022/11/05 01:15:52;;;;;;;;;7.50;6.00;;;;;7.23;72.56;100973.59;6087337;23;45268;-94
2022/11/05 01:18:19;;;;;;;;;7.75;7.75;;;;;4.94;72.99;100599.59;6097609;23;46175;-92
2022/11/05 01:20:53;;;;;;;;;10.00;6.75;;;;;6.15;72.73;100793.13;6101246;23;45887;-91
2022/11/05 01:23:19;;;;;;;;;10.00;8.50;;;;;5.62;72.80;100709.91;6078160;23;45356;-95
2022/11/05 01:25:45;;;;;;;;;7.25;7.25;;;;;7.17;73.44;100990.25;6070625;23;45702;-92
2022/11/05 01:28:11;;;;;;;;;8.25;7.25;;;;;4.53;72.57;100533.09;6094126;23;47263;-92
2022/11/05 01:30:38;;;;;;;;;6.75;6.75;;;;;6.25;73.05;100832.50;6069146;23;45258;-92
2022/11/05 01:33:04;;;;;;;;;8.00;6.50;;;;;5.64;72.85;100716.88;6138011;23;45205;-93
2022/11/05 01:35:29;;;;;;;;;9.00;6.00;;;;;7.72;72.91;101093.72;6122633;23;45182;-92
2022/11/05 01:37:55;;;;;;;;;6.00;5.00;;;;;7.71;72.87;101081.44;6132688;23;47865;-92
2022/11/05 01:40:22;;;;;;;;;9.50;5.25;;;;;6.48;73.13;100875.41;6140889;23;44598;-93
2022/11/05 01:42:50;;;;;;;;;4.50;4.50;;;;;7.52;73.16;101049.00;6142236;23;45274;-94
2022/11/05 01:45:20;;;;;;;;;6.75;6.00;;;;;6.51;73.32;100885.94;6152868;23;44834;-92
2022/11/05 01:48:16;;;;;;;;;6.25;4.00;;;;;5.04;72.69;100639.78;6151897;23;45609;-91
2022/11/05 01:51:03;;;;;;;;;6.50;4.75;;;;;7.64;72.60;101081.44;6142671;23;45589;-91
2022/11/05 01:53:37;;;;;;;;;7.50;5.50;;;;;5.39;73.04;100708.06;6147668;23;44698;-92
2022/11/05 01:56:10;;;;;;;;;6.00;6.00;;;;;5.26;72.20;100708.91;6136592;23;45484;-90
2022/11/05 01:59:01;;;;;;;;;6.75;5.75;;;;;4.75;72.80;100610.00;6122978;23;46898;-94
2022/11/05 02:01:27;;;;;;;;;5.75;5.50;;;;;6.79;73.08;100962.16;6119980;23;45133;-92
2022/11/05 02:04:00;;;;;;;;;7.25;7.25;;;;;4.67;72.76;100611.69;6131565;23;45223;-92
2022/11/05 02:06:31;;;;;;;;;7.50;7.50;;;;;5.50;73.27;100753.56;6129864;23;45550;-92
2022/11/05 02:09:17;;;;;;;;;6.25;5.00;;;;;6.46;73.06;100905.19;6128393;23;47030;-93
2022/11/05 02:11:42;;;;;;;;;6.25;6.25;;;;;5.15;72.99;100699.25;6127974;23;45792;-92
2022/11/05 02:14:08;;;;;;;;;7.50;6.75;;;;;6.87;73.04;100991.94;6133259;23;45288;-93
2022/11/05 02:16:50;;;;;;;;;8.75;8.00;;;;;7.34;73.04;101076.16;6156266;23;45234;-90
2022/11/05 02:19:25;;;;;;;;;6.25;6.25;;;;;7.50;73.54;101085.81;6162636;23;46709;-92
2022/11/05 02:22:28;;;;;;;;;8.00;8.00;;;;;7.47;73.45;101083.19;6134802;23;45224;-91
2022/11/05 02:25:14;;;;;;;;;11.00;9.50;;;;;6.63;73.25;100949.88;6131562;23;45302;-92
2022/11/05 02:28:19;;;;;;;;;7.25;7.25;;;;;5.15;72.91;100706.25;6134459;23;45506;-92
2022/11/05 02:31:02;;;;;;;;;4.50;4.25;;;;;7.45;73.06;101080.56;6044541;23;46999;-92
2022/11/05 02:33:42;;;;;;;;;3.50;3.50;;;;;6.76;73.07;100977.94;6059139;23;44612;-92
2022/11/05 02:36:27;;;;;;;;;5.50;5.50;;;;;5.33;73.23;100729.03;6066354;23;45290;-91
2022/11/05 02:39:34;;;;;;;;;6.00;4.50;;;;;7.44;73.93;101088.44;6068667;23;45297;-91
2022/11/05 02:42:10;;;;;;;;;6.75;5.00;;;;;5.07;73.07;100689.59;6042703;23;47074;-92
2022/11/05 02:44:53;;;;;;;;;9.25;8.25;;;;;6.81;74.00;100986.69;6043198;23;45332;-92
2022/11/05 02:47:46;;;;;;;;;5.00;5.00;;;;;7.44;72.77;101086.69;6068512;23;45326;-92
2022/11/05 02:50:32;;;;;;;;;7.25;4.25;;;;;7.34;73.71;101070.91;6049459;23;45231;-92
2022/11/05 02:53:23;;;;;;;;;7.75;6.25;;;;;6.80;73.48;100984.91;6076749;23;45618;-92
2022/11/05 02:55:58;;;;;;;;;6.25;5.50;;;;;5.36;72.92;100741.25;6072521;23;45140;-92
2022/11/05 02:58:26;;;;;;;;;3.00;3.00;;;;;4.78;72.95;100651.94;6043602;23;45315;-92
2022/11/05 03:00:53;;;;;;;;;7.50;5.00;;;;;4.15;73.28;100523.31;6066751;23;45515;-92
2022/11/05 03:03:43;;;;;;;;;5.25;5.00;;;;;5.78;73.43;100799.97;6068927;23;46872;-91
2022/11/05 03:06:22;;;;;;;;;6.25;4.00;;;;;4.38;74.05;100557.47;6066747;23;45175;-95
2022/11/05 03:08:55;;;;;;;;;6.50;5.25;;;;;5.45;73.19;100744.81;6132313;23;45272;-95
2022/11/05 03:11:24;;;;;;;;;5.00;5.00;;;;;4.56;73.52;100588.09;6130781;23;45114;-95
2022/11/05 03:14:05;;;;;;;;;4.00;4.00;;;;;5.59;74.21;100752.72;6132008;23;47516;-95
2022/11/05 03:16:47;;;;;;;;;5.25;5.25;;;;;6.79;73.68;100972.69;6131866;23;45241;-95
2022/11/05 03:19:31;;;;;;;;;6.25;6.00;;;;;7.42;72.94;101075.25;6154191;23;45237;-94
2022/11/05 03:22:06;;;;;;;;;4.00;4.00;;;;;6.67;74.11;100956.91;6163140;23;45129;-94
2022/11/05 03:24:38;;;;;;;;;4.00;3.00;;;;;7.15;74.22;101034.06;6160066;23;46622;-96
2022/11/05 03:27:18;;;;;;;;;4.50;4.00;;;;;6.92;74.02;101011.25;6159852;23;45298;-95
2022/11/05 03:29:50;;;;;;;;;4.00;4.00;;;;;5.99;73.56;100838.56;6136238;23;45251;-94
2022/11/05 03:32:19;;;;;;;;;4.75;4.75;;;;;7.01;73.28;101004.25;6191203;23;45378;-95
2022/11/05 03:35:01;;;;;;;;;9.00;5.50;;;;;4.67;73.14;100608.22;6174699;23;46656;-94
2022/11/05 03:37:33;;;;;;;;;8.00;5.75;;;;;7.47;73.49;101088.44;6194628;23;44586;-95
2022/11/05 03:40:02;;;;;;;;;7.75;6.25;;;;;4.79;72.89;100645.81;6146145;23;44748;-95
2022/11/05 03:42:34;;;;;;;;;6.50;5.00;;;;;5.19;73.71;100699.25;6201051;23;45205;-94
2022/11/05 03:45:07;;;;;;;;;8.75;8.00;;;;;5.03;73.45;100664.25;6150957;23;47230;-94
2022/11/05 03:47:37;;;;;;;;;4.75;4.75;;;;;4.24;72.99;100532.97;6204701;23;44770;-94
2022/11/05 03:50:44;;;;;;;;;4.00;4.00;;;;;7.48;73.87;101061.25;6209095;23;44663;-94
2022/11/05 03:53:26;;;;;;;;;7.00;5.75;;;;;5.61;73.47;100747.47;6084008;23;44912;-94
2022/11/05 03:56:10;;;;;;;;;3.75;3.75;;;;;7.45;73.60;101059.53;6078471;23;47128;-94
2022/11/05 03:58:40;;;;;;;;;5.00;4.75;;;;;7.45;73.72;101072.66;6066655;23;45194;-95
2022/11/05 04:01:06;;;;;;;;;5.00;4.00;;;;;7.38;73.13;101062.13;6069638;23;45191;-96
2022/11/05 04:03:39;;;;;;;;;5.00;5.00;;;;;7.13;73.33;101034.94;6044403;23;45234;-95
2022/11/05 04:14:19;;;;;;;;;4.75;3.50;;;;;6.84;73.21;100954.28;6070777;23;45207;-94
2022/11/05 04:24:58;;;;;;;;;3.25;3.00;;;;;7.09;74.00;101018.25;6179776;23;45145;-91
2022/11/05 04:27:24;;;;;;;;;4.50;4.50;;;;;7.53;74.07;101088.47;6186505;23;45179;-93
2022/11/05 04:32:34;;;;;;;;;5.25;4.00;;;;;6.97;73.51;100973.56;6196306;23;45144;-92
2022/11/05 04:35:00;;;;;;;;;2.00;2.00;;;;;7.19;73.43;101014.78;6181047;23;44860;-92
2022/11/05 04:37:25;;;;;;;;;3.75;2.50;;;;;7.63;74.09;101100.72;6192745;23;46877;-93
2022/11/05 04:39:51;;;;;;;;;4.00;4.00;;;;;5.25;73.59;100678.31;6160712;23;45327;-92
2022/11/05 04:42:16;;;;;;;;;5.25;4.50;;;;;6.52;74.18;100897.31;6164338;23;45344;-92
2022/11/05 04:44:42;;;;;;;;;4.00;4.00;;;;;6.41;73.55;100878.91;6140290;23;45306;-93
2022/11/05 04:47:09;;;;;;;;;3.75;3.75;;;;;7.71;73.97;101086.69;6191931;23;46087;-93
2022/11/05 04:49:34;;;;;;;;;3.00;3.00;;;;;7.28;74.16;101009.50;6172858;23;44753;-93
2022/11/05 04:52:00;;;;;;;;;3.50;3.50;;;;;4.52;73.81;100548.81;6201940;23;44790;-92
2022/11/05 04:54:26;;;;;;;;;8.75;4.75;;;;;6.33;73.63;100852.66;6185464;23;45564;-92
2022/11/05 04:56:51;;;;;;;;;6.00;5.50;;;;;6.03;74.18;100795.72;6176094;23;46267;-94
2022/11/05 04:59:17;;;;;;;;;5.75;4.50;;;;;5.67;72.88;100735.25;6172513;23;44614;-95
2022/11/05 05:01:42;;;;;;;;;6.00;6.00;;;;;6.00;73.77;100811.47;6138364;23;45249;-94
2022/11/05 05:04:08;;;;;;;;;5.00;5.00;;;;;6.54;73.99;100901.72;6165584;23;45177;-93
2022/11/05 05:06:35;;;;;;;;;4.00;4.00;;;;;6.40;73.63;100906.03;6190210;23;45488;-93
2022/11/05 05:09:00;;;;;;;;;5.75;4.00;;;;;4.59;73.48;100597.72;6168877;23;45202;-93
2022/11/05 05:11:26;;;;;;;;;4.25;3.25;;;;;6.96;73.74;100995.47;6175388;23;44736;-95
2022/11/05 05:13:51;;;;;;;;;5.00;4.00;;;;;6.87;73.64;100994.56;6177222;23;45040;-92
2022/11/05 05:16:25;;;;;;;;;8.75;8.00;;;;;6.54;73.89;100930.59;6166508;23;47154;-92
2022/11/05 05:18:53;;;;;;;;;8.25;7.50;;;;;6.04;74.43;100842.06;6179300;23;45249;-93
2022/11/05 05:21:39;;;;;;;;;7.75;5.00;;;;;5.49;73.53;100783.25;6153341;23;45188;-91
2022/11/05 05:24:11;;;;;;;;;6.00;5.00;;;;;5.84;73.76;100845.47;6153219;23;45319;-92
2022/11/05 05:26:41;;;;;;;;;4.25;4.25;;;;;6.72;73.88;100994.53;6147146;23;46268;-93
2022/11/05 05:29:08;;;;;;;;;7.50;5.00;;;;;4.65;73.24;100644.88;6179484;23;45138;-92
2022/11/05 05:31:34;;;;;;;;;4.50;4.50;;;;;5.81;73.86;100824.47;6158710;23;44633;-92
2022/11/05 05:34:00;;;;;;;;;4.00;4.00;;;;;6.26;73.80;100931.41;6160511;23;45117;-93
2022/11/05 05:36:25;;;;;;;;;6.25;5.25;;;;;5.73;73.55;100825.31;6159743;23;46941;-92
2022/11/05 05:38:51;;;;;;;;;5.50;5.50;;;;;6.44;73.80;100938.44;6201236;22;44742;-90
2022/11/05 05:41:17;;;;;;;;;6.00;6.00;;;;;6.00;74.19;100875.31;6206884;23;45139;-92
2022/11/05 05:43:46;;;;;;;;;4.75;4.75;;;;;6.87;73.61;101020.84;6176913;23;45296;-95
2022/11/05 05:46:15;;;;;;;;;3.00;3.00;;;;;6.22;73.40;100907.75;6154407;23;45221;-95
2022/11/05 05:48:47;;;;;;;;;8.00;7.25;;;;;4.30;74.13;100590.56;6198943;23;44590;-94
2022/11/05 05:51:12;;;;;;;;;6.00;4.00;;;;;5.25;74.02;100762.19;6173172;23;45222;-94
2022/11/05 05:53:38;;;;;;;;;2.50;2.50;;;;;5.57;73.43;100832.25;6194785;23;44845;-94
2022/11/05 05:56:07;;;;;;;;;3.75;3.75;;;;;4.04;73.56;100583.44;6165504;23;46467;-94
2022/11/05 05:58:36;;;;;;;;;3.00;2.00;;;;;5.49;73.21;100804.22;6162651;23;44734;-95
2022/11/05 06:04:25;;;;;;;;;4.50;3.75;;;;;6.14;73.93;100948.84;6194011;23;45303;-95
2022/11/05 06:10:15;;;;;;;;;2.50;2.50;;;;;6.31;73.83;101001.41;6187118;23;45326;-91
2022/11/05 06:12:43;;;;;;;;;5.25;3.00;;;;;7.16;73.99;101135.72;6165299;23;45326;-92
2022/11/05 06:15:09;;;;;;;;;8.00;4.75;;;;;4.78;74.30;100743.59;6174011;23;45646;-92
2022/11/05 06:17:35;;;;;;;;;3.00;3.00;;;;;6.40;73.50;101003.19;6135229;23;47020;-91
2022/11/05 06:20:01;;;;;;;;;3.75;3.75;;;;;6.04;74.11;100954.91;6157268;23;45221;-92
2022/11/05 06:22:27;;;;;;;;;2.75;2.75;;;;;5.81;74.18;100916.28;6134183;23;45421;-92
2022/11/05 06:24:52;;;;;;;;;4.00;4.00;;;;;4.88;73.86;100756.75;6134951;23;45463;-91
2022/11/05 06:27:18;;;;;;;;;4.50;4.50;;;;;5.60;73.99;100901.34;6143409;23;48220;-91
2022/11/05 06:29:44;;;;;;;;;7.50;5.25;;;;;4.27;74.23;100663.81;6146504;23;45263;-92
2022/11/05 06:32:10;;;;;;;;;5.75;4.50;;;;;6.15;74.02;101000.47;6166945;23;45193;-91
2022/11/05 06:34:36;;;;;;;;;4.50;3.75;;;;;5.97;74.38;100968.88;6109445;23;45183;-92
2022/11/05 06:37:04;;;;;;;;;3.75;3.75;;;;;6.21;74.16;101004.88;6131460;23;47296;-93
2022/11/05 06:39:30;;;;;;;;;4.75;4.75;;;;;4.22;73.43;100663.78;6139045;23;45123;-94
2022/11/05 06:41:55;;;;;;;;;2.75;2.75;;;;;4.84;73.98;100768.06;6140290;23;45191;-94
2022/11/05 06:44:22;;;;;;;;;6.00;3.75;;;;;6.53;74.11;101068.03;6132886;23;45444;-94
2022/11/05 06:46:47;;;;;;;;;3.00;3.00;;;;;4.25;74.25;100687.38;6133412;23;46756;-95
2022/11/05 06:49:14;;;;;;;;;5.25;4.25;;;;;4.18;74.08;100648.94;6135391;23;44789;-95
2022/11/05 06:51:43;;;;;;;;;4.50;4.00;;;;;4.62;73.77;100741.72;6165532;23;45336;-95
2022/11/05 06:54:10;;;;;;;;;3.50;3.50;;;;;4.18;74.60;100663.75;6171247;23;45093;-95
2022/11/05 06:56:38;;;;;;;;;4.00;4.00;;;;;4.96;73.87;100813.56;6112275;23;47010;-94
2022/11/05 06:59:05;;;;;;;;;5.00;3.25;;;;;6.75;74.04;101099.66;6161670;23;45411;-95
2022/11/05 07:01:31;;;;;;;;;4.25;3.25;;;;;5.02;74.28;100799.59;6155853;23;45348;-92
2022/11/05 07:03:56;;;;;;;;;3.25;3.25;;;;;4.35;74.27;100672.59;6129303;23;45246;-92
2022/11/05 07:06:22;;;;;;;;;4.00;4.00;;;;;6.19;74.47;100975.97;6130397;23;46903;-93
2022/11/05 07:08:47;;;;;;;;;4.75;3.00;;;;;5.75;74.23;100895.25;6173649;23;44532;-92
2022/11/05 07:11:13;;;;;;;;;6.50;5.00;;;;;6.07;73.87;100947.03;6137468;23;45137;-92
2022/11/05 07:13:40;;;;;;;;;5.00;5.00;;;;;6.96;73.76;101126.91;6133728;23;45149;-95
2022/11/05 07:16:08;;;;;;;;;5.00;4.50;;;;;6.37;74.41;101000.56;6141400;23;46174;-90
2022/11/05 07:18:34;;;;;;;;;2.50;1.75;;;;;6.42;74.28;101004.06;6137791;23;45273;-91
2022/11/05 07:20:59;;;;;;;;;5.00;5.00;;;;;6.58;74.13;101010.28;6149220;23;44659;-92
2022/11/05 07:23:29;;;;;;;;;4.75;4.75;;;;;6.05;74.09;100919.94;6149979;23;45339;-94
2022/11/05 07:25:56;;;;;;;;;6.25;6.25;;;;;5.24;73.60;100765.66;6145959;23;45417;-95
2022/11/05 07:28:24;;;;;;;;;6.25;4.00;;;;;6.04;73.76;100891.91;6114220;23;45332;-95
2022/11/05 07:30:52;;;;;;;;;7.00;5.00;;;;;4.87;73.61;100682.50;6087549;23;45316;-95
2022/11/05 07:33:20;;;;;;;;;4.50;4.50;;;;;4.63;74.05;100649.19;6163318;23;44813;-93
2022/11/05 07:35:46;;;;;;;;;5.00;4.75;;;;;6.03;73.58;100882.31;6143642;23;46174;-93
2022/11/05 07:38:12;;;;;;;;;7.25;7.25;;;;;4.91;73.81;100686.91;6146764;23;45348;-95
2022/11/05 07:40:39;;;;;;;;;5.75;5.00;;;;;5.78;73.93;100836.69;6121049;23;44730;-95
2022/11/05 07:43:08;;;;;;;;;8.50;4.50;;;;;6.19;73.71;100896.34;6173783;23;44892;-95
2022/11/05 07:45:35;;;;;;;;;7.50;5.00;;;;;6.22;73.94;100897.25;6159928;23;45428;-95
2022/11/05 07:48:02;;;;;;;;;5.25;4.25;;;;;7.72;74.33;101155.09;6129184;23;45254;-95
2022/11/05 07:50:31;;;;;;;;;4.50;3.75;;;;;6.64;74.55;100970.03;6157102;23;45221;-92
2022/11/05 07:53:02;;;;;;;;;6.00;5.00;;;;;8.03;73.71;101217.44;6160226;23;45210;-95
2022/11/05 07:55:29;;;;;;;;;8.25;6.75;;;;;5.07;73.40;100690.47;6163669;23;46094;-94
2022/11/05 07:57:57;;;;;;;;;6.00;4.25;;;;;6.79;74.58;100972.69;6146945;23;45375;-95
2022/11/05 08:00:25;;;;;;;;;4.75;4.75;;;;;7.20;74.05;101037.56;6164580;23;45115;-95
2022/11/05 08:03:04;;;;;;;;;5.00;5.00;;;;;6.39;73.65;100878.03;6129693;23;45588;-94
2022/11/05 08:05:33;;;;;;;;;4.75;4.75;;;;;7.68;73.97;101092.81;6139238;23;47140;-94
2022/11/05 08:08:01;;;;;;;;;7.50;5.00;;;;;8.40;73.81;101193.75;6137497;23;45242;-95
2022/11/05 08:10:26;;;;;;;;;4.50;4.50;;;;;5.73;74.15;100718.66;6137206;23;45138;-95
2022/11/05 08:16:18;;;;;;;;;7.25;6.00;;;;;7.94;73.31;101012.97;6165676;23;45162;-94
2022/11/05 08:18:47;;;;;;;;;4.25;4.25;;;;;6.58;73.50;100752.88;6089127;23;44744;-91
2022/11/05 08:21:21;;;;;;;;;6.50;5.25;;;;;6.38;73.22;100703.00;6166918;23;45205;-92
2022/11/05 08:23:52;;;;;;;;;5.75;5.00;;;;;7.58;73.22;100881.50;6132714;23;45358;-92
2022/11/05 08:26:30;;;;;;;;;3.50;3.50;;;;;8.00;73.25;100902.38;6128935;23;46655;-93
2022/11/05 08:28:55;;;;;;;;;4.75;4.00;;;;;9.91;72.86;101190.47;6157796;23;45358;-94
2022/11/05 08:35:15;;;;;;;;;5.50;5.00;;;;;7.35;72.90;100728.13;6157390;23;45375;-93
2022/11/05 08:37:44;;;;;;;;;4.50;3.00;;;;;9.52;73.08;101098.38;6129030;23;46397;-93
2022/11/05 08:47:02;;;;;;;;;6.50;5.50;;;;;9.13;72.71;100975.56;6156653;23;45346;-93
2022/11/05 08:50:05;;;;;;;;;5.75;5.75;;;;;9.70;72.51;101019.91;6155417;23;45420;-92
2022/11/05 09:06:08;;;;;;;;;5.50;3.75;;;;;10.86;71.60;101037.13;6013008;23;45238;-93
2022/11/05 09:08:42;;;;;;;;;7.50;3.75;;;;;11.65;71.74;101161.25;6012940;23;45290;-93
2022/11/05 09:11:21;;;;;;;;;5.00;5.00;;;;;11.09;71.75;101024.44;6015510;23;44929;-91
2022/11/05 09:14:07;;;;;;;;;5.75;3.75;;;;;10.04;71.76;100832.94;5990951;23;48053;-92
2022/11/05 09:30:52;;;;;;;;;6.25;5.75;;;;;12.44;71.30;101179.38;6148684;23;45431;-93
2022/11/05 09:39:53;;;;;;;;;3.00;3.00;;;;;11.68;70.81;101023.50;6171065;23;45180;-93
2022/11/05 09:42:32;;;;;;;;;2.75;2.25;;;;;12.09;70.47;101062.50;6169622;23;45209;-92
2022/11/05 09:45:16;;;;;;;;;1.00;1.00;;;;;13.10;70.34;101185.16;6136604;23;45408;-95
2022/11/05 09:48:13;;;;;;;;;2.75;1.75;;;;;13.35;69.91;101185.56;6155597;23;45389;-92
2022/11/05 09:50:49;;;;;;;;;6.00;3.00;;;;;13.53;69.94;101204.63;6133903;23;46977;-93
2022/11/05 09:53:30;;;;;;;;;0.00;0.00;;;;;11.17;69.77;100757.09;6099219;23;45396;-92
2022/11/05 09:56:20;;;;;;;;;1.00;1.00;;;;;11.78;69.99;100850.31;6130133;23;45122;-93
2022/11/05 09:58:58;;;;;;;;;3.00;1.00;;;;;12.12;70.06;100873.47;6156134;23;45362;-92
2022/11/05 10:04:32;;;;;;;;;1.75;1.75;;;;;12.69;70.01;100957.00;6162355;23;45234;-92
2022/11/05 10:07:01;;;;;;;;;3.00;3.00;;;;;11.85;70.07;100795.44;6132871;23;45389;-93
2022/11/05 10:09:45;;;;;;;;;2.25;2.25;;;;;13.96;69.77;101140.75;6158117;23;45342;-92
2022/11/05 10:12:43;;;;;;;;;2.75;2.50;;;;;13.28;69.29;101036.13;6160811;23;47026;-92
2022/11/05 10:16:00;;;;;;;;;;;;;;;;;;;;;
2022/11/05 10:18:45;;;;;;;;;1.00;1.00;;;;;12.24;69.23;100833.44;6156050;23;45182;-92
2022/11/05 10:21:24;;;;;;;;;2.00;2.00;;;;;13.05;69.72;100948.25;6139091;23;44810;-93
2022/11/05 10:23:53;;;;;;;;;3.50;2.00;;;;;12.42;69.59;100855.13;6157348;23;45382;-92
2022/11/05 10:33:47;;;;;;;;;1.50;1.50;;;;;14.25;69.67;101179.00;6048642;23;45194;-92
2022/11/05 10:36:45;;;;;;;;;2.00;2.00;;;;;12.66;69.65;100946.47;6040996;23;45359;-92
2022/11/05 10:39:18;;;;;;;;;1.75;1.75;;;;;11.59;69.71;100759.78;6000701;23;45213;-91
2022/11/05 10:42:19;;;;;;;;;;;;;;;;;;;;;
2022/11/05 10:45:03;;;;;;;;;1.75;1.75;;;;;13.99;69.47;101187.66;6036858;23;69462;-92
2022/11/05 10:47:56;;;;;;;;;1.00;1.00;;;;;13.73;69.78;101159.06;6012819;23;46147;-93
2022/11/05 10:50:28;;;;;;;;;2.00;2.00;;;;;11.84;69.34;100854.59;6016118;23;45211;-94
2022/11/05 10:53:11;;;;;;;;;3.00;1.75;;;;;11.22;69.55;100757.03;6019044;23;45252;-94
2022/11/05 10:55:43;;;;;;;;;2.00;2.00;;;;;13.79;69.71;101206.72;6016362;23;45535;-94
2022/11/05 10:58:40;;;;;;;;;2.00;2.00;;;;;11.86;69.57;100889.88;6001926;23;45280;-95
2022/11/05 11:04:43;;;;;;;;;2.00;2.00;;;;;11.32;69.45;100775.31;5973143;23;44769;-95
2022/11/05 11:09:55;;;;;;;;;5.50;4.00;;;;;13.79;69.97;101190.78;6230468;22;47498;-96
2022/11/05 11:12:27;;;;;;;;;1.75;1.75;;;;;13.55;69.70;101153.25;6243960;22;44825;-94
2022/11/05 11:15:39;;;;;;;;;4.00;2.00;;;;;10.98;69.54;100703.72;6241897;22;44802;-91
2022/11/05 11:18:38;;;;;;;;;3.00;2.00;;;;;13.81;70.08;101186.31;6254103;22;45266;-92
2022/11/05 11:21:22;;;;;;;;;4.00;3.00;;;;;12.31;69.99;100939.31;6259840;22;45322;-94
2022/11/05 11:24:02;;;;;;;;;4.00;2.75;;;;;13.80;69.76;101176.56;6255353;22;45147;-93
2022/11/05 11:26:59;;;;;;;;;3.25;3.25;;;;;12.04;69.71;100883.34;6253139;22;45281;-93
2022/11/05 11:29:27;;;;;;;;;2.25;1.00;;;;;11.41;69.53;100766.34;6202997;22;45385;-92
2022/11/05 11:32:01;;;;;;;;;2.00;2.00;;;;;12.92;70.15;101020.16;6229209;22;45253;-95
2022/11/05 11:34:39;;;;;;;;;3.00;3.00;;;;;12.36;69.86;100940.06;6268447;22;44716;-93
2022/11/05 11:37:23;;;;;;;;;3.00;3.00;;;;;12.08;69.54;100863.81;6237831;22;44721;-94
2022/11/05 11:39:55;;;;;;;;;2.75;2.75;;;;;13.41;69.86;101078.38;6248534;22;45147;-93
2022/11/05 11:45:55;;;;;;;;;2.50;2.50;;;;;11.66;68.98;100776.41;6093789;23;45257;-93
2022/11/05 11:49:11;;;;;;;;;3.00;3.00;;;;;12.51;69.44;100888.50;6110532;23;44773;-92
2022/11/05 11:51:49;;;;;;;;;2.75;2.50;;;;;11.25;69.44;100674.94;6041854;23;44904;-93
2022/11/05 11:54:29;;;;;;;;;4.25;2.00;;;;;11.63;68.54;100734.09;6015808;23;44953;-92
2022/11/05 11:56:55;;;;;;;;;1.75;1.75;;;;;12.96;69.24;100965.25;6015302;23;45508;-93
2022/11/05 11:59:26;;;;;;;;;1.25;1.25;;;;;11.49;69.14;100695.59;6017102;23;45333;-93
2022/11/05 12:02:14;;;;;;;;;3.00;2.75;;;;;12.29;69.32;100814.78;6018855;23;44970;-92
2022/11/05 12:05:36;;;;;;;;;;;;;;;;;;;;;
2022/11/05 12:19:39;;;;;;;;;1.00;1.00;;;;;14.99;69.04;101128.28;6055862;23;45301;-95
2022/11/05 12:25:58;;;;;;;;;3.25;1.25;;;;;12.55;69.05;100726.66;5998347;23;45169;-95
2022/11/05 12:29:13;;;;;;;;;1.75;1.00;;;;;14.96;69.43;101121.22;6060015;23;45388;-95
2022/11/05 12:31:53;;;;;;;;;1.50;1.50;;;;;14.96;68.67;101118.56;6078754;23;46818;-95
2022/11/05 12:34:36;;;;;;;;;3.00;3.00;;;;;14.96;68.78;101126.56;6055345;23;45206;-94
2022/11/05 12:37:22;;;;;;;;;1.75;1.75;;;;;15.00;68.53;101120.25;6055300;23;44679;-93
2022/11/05 12:39:59;;;;;;;;;1.50;1.50;;;;;15.05;68.76;101123.63;6048875;23;45626;-94
2022/11/05 12:42:56;;;;;;;;;3.50;3.25;;;;;15.11;68.57;101106.59;6078750;23;45574;-94
2022/11/05 12:49:16;;;;;;;;;4.50;2.50;;;;;13.66;68.25;100845.78;6076687;23;45538;-94
2022/11/05 12:52:00;;;;;;;;;3.50;2.25;;;;;15.19;68.33;101098.38;6056255;23;45301;-95
2022/11/05 12:54:48;;;;;;;;;5.00;3.75;;;;;15.20;68.20;101100.13;6060187;23;46756;-94
2022/11/05 12:57:47;;;;;;;;;1.50;1.50;;;;;12.94;68.19;100713.25;6024152;23;44786;-95
2022/11/05 13:00:25;;;;;;;;;1.00;1.00;;;;;15.17;68.29;101094.88;6151019;23;45175;-96
2022/11/05 13:03:25;;;;;;;;;2.00;2.00;;;;;15.11;68.20;101090.63;6151064;23;44842;-94
2022/11/05 13:06:58;;;;;;;;;4.00;1.25;;;;;15.05;68.56;101075.72;6149517;23;45606;-95
2022/11/05 13:10:24;;;;;;;;;1.00;1.00;;;;;14.96;68.64;101076.00;6081191;23;44850;-94
2022/11/05 13:13:37;;;;;;;;;4.25;2.25;;;;;13.50;68.22;100849.78;6074591;23;44809;-94
2022/11/05 13:22:41;;;;;;;;;15.50;14.00;;;;;12.14;68.04;100656.16;6078182;23;45227;-92
2022/11/05 13:25:18;;;;;;;;;27.50;25.50;;;;;14.60;68.31;101078.78;6067642;23;45437;-93
2022/11/05 13:28:27;;;;;;;;;6.50;5.00;;;;;14.55;68.16;101076.25;6053278;23;45255;-92
2022/11/05 13:31:00;;;;;;;;;3.25;3.00;;;;;12.93;68.40;100822.91;6082449;23;45427;-94
2022/11/05 13:33:31;;;;;;;;;4.50;3.00;;;;;11.98;68.21;100680.38;6083170;23;44757;-96
2022/11/05 13:50:11;;;;;;;;;7.00;6.00;;;;;14.03;68.58;101099.81;6081042;23;44759;-96
2022/11/05 13:53:08;;;;;;;;;3.00;3.00;;;;;12.15;68.18;100785.97;6084782;23;45480;-93
2022/11/05 13:56:01;;;;;;;;;5.25;4.50;;;;;13.86;68.49;101083.44;6077724;23;47229;-93
2022/11/05 13:59:00;;;;;;;;;3.00;3.00;;;;;13.76;68.55;101074.84;6076184;23;45418;-94
2022/11/05 14:01:58;;;;;;;;;2.50;2.50;;;;;13.70;68.43;101079.44;6045278;23;45250;-93
2022/11/05 14:04:31;;;;;;;;;4.75;4.75;;;;;12.25;68.53;100882.91;6076003;23;45413;-92
2022/11/05 14:07:24;;;;;;;;;12.00;11.00;;;;;13.55;68.42;101078.91;6095103;23;47187;-93
2022/11/05 14:10:05;;;;;;;;;3.00;3.00;;;;;12.96;68.52;101003.25;6173863;23;45226;-93
2022/11/05 14:12:37;;;;;;;;;6.00;3.00;;;;;12.72;68.89;100961.38;6213938;22;45274;-93
2022/11/05 14:15:28;;;;;;;;;3.75;3.75;;;;;12.44;68.65;100930.19;6226488;22;44730;-92
2022/11/05 14:18:20;;;;;;;;;4.00;4.00;;;;;12.85;68.56;100980.56;6222512;22;46230;-91
2022/11/05 14:21:02;;;;;;;;;7.75;7.00;;;;;12.01;68.53;100894.88;6220128;22;45362;-94
2022/11/05 14:24:00;;;;;;;;;6.75;6.00;;;;;10.72;68.78;100675.09;6191866;22;45263;-94
2022/11/05 14:26:28;;;;;;;;;7.50;4.50;;;;;10.62;69.01;100632.13;6194980;22;45302;-93
2022/11/05 14:29:02;;;;;;;;;3.00;2.00;;;;;13.20;68.86;101079.72;6191888;22;46023;-93
2022/11/05 14:31:41;;;;;;;;;3.00;3.00;;;;;12.58;68.28;101004.97;6221872;22;45142;-93
2022/11/05 14:34:13;;;;;;;;;3.75;3.00;;;;;12.68;68.96;101023.34;6230561;22;45372;-92
2022/11/05 14:36:40;;;;;;;;;3.00;3.00;;;;;12.00;68.78;100919.63;6225902;22;44925;-92
2022/11/05 14:39:26;;;;;;;;;3.25;3.00;;;;;11.47;68.99;100845.59;6198756;22;47086;-92
2022/11/05 14:42:28;;;;;;;;;4.75;4.75;;;;;11.44;69.01;100824.50;6199767;22;45283;-92
2022/11/05 14:45:15;;;;;;;;;4.25;4.25;;;;;12.47;69.14;101019.41;6200980;22;45097;-92
2022/11/05 14:47:51;;;;;;;;;3.75;3.75;;;;;11.49;69.35;100854.41;6199393;22;44906;-93
2022/11/05 14:50:30;;;;;;;;;4.25;3.50;;;;;11.06;69.09;100781.13;6194079;22;45650;-91
2022/11/05 14:53:07;;;;;;;;;2.50;2.50;;;;;10.46;68.81;100685.28;6222352;22;45341;-92